Time;durP1;ratioP1;P1;durP2;ratioP2;P2;SDS_P1;SDS_P2;PMS_P1;PMS_P2;Temp;Humidity;BMP_temperature;BMP_pressure;BME280_temperature;BME280_humidity;BME280_pressure;Samples;Min_cycle;Max_cycle;Signal;HPM_P1;HPM_P2
2021/07/13 00:01:35;;;;;;;3.87;2.87;;;19.90;99.90;;;;;;4866227;29;20462;-92
2021/07/13 00:04:01;;;;;;;3.33;3.03;;;19.80;99.90;;;;;;4858080;29;20197;-94
2021/07/13 00:06:27;;;;;;;3.30;2.83;;;19.80;99.90;;;;;;4865418;29;20972;-93
2021/07/13 00:08:53;;;;;;;3.37;2.63;;;19.80;99.90;;;;;;4862888;29;20208;-94
2021/07/13 00:11:20;;;;;;;2.47;2.30;;;19.80;99.90;;;;;;4864916;29;20537;-93
2021/07/13 00:13:47;;;;;;;4.40;2.40;;;19.70;99.90;;;;;;4863596;29;20489;-92
2021/07/13 00:16:16;;;;;;;3.47;2.47;;;19.80;99.90;;;;;;4867792;29;20458;-92
2021/07/13 00:18:42;;;;;;;2.17;2.00;;;19.70;99.90;;;;;;4858719;29;20553;-93
2021/07/13 00:21:13;;;;;;;2.07;1.87;;;19.70;99.90;;;;;;4849103;29;21106;-95
2021/07/13 00:23:44;;;;;;;3.13;1.97;;;19.80;99.90;;;;;;4866289;29;20560;-93
2021/07/13 00:26:11;;;;;;;1.90;1.70;;;19.70;99.90;;;;;;4863019;29;20457;-94
2021/07/13 00:28:37;;;;;;;3.20;2.53;;;19.80;99.90;;;;;;4858044;29;20459;-94
2021/07/13 00:31:02;;;;;;;2.40;2.00;;;19.80;99.90;;;;;;4847531;29;20438;-95
2021/07/13 00:33:29;;;;;;;2.33;1.80;;;19.80;99.90;;;;;;4863125;29;20240;-93
2021/07/13 00:35:56;;;;;;;1.73;1.63;;;19.70;99.90;;;;;;4864214;29;20205;-95
2021/07/13 00:38:23;;;;;;;2.17;1.60;;;19.50;99.90;;;;;;4865212;29;20989;-94
2021/07/13 00:40:50;;;;;;;5.60;2.03;;;19.40;99.90;;;;;;4865561;29;20520;-92
2021/07/13 00:43:16;;;;;;;1.97;1.87;;;19.30;99.90;;;;;;4862600;29;20458;-93
2021/07/13 00:45:43;;;;;;;2.53;1.57;;;19.30;99.90;;;;;;4862049;29;21336;-93
2021/07/13 00:48:10;;;;;;;2.00;1.80;;;19.40;99.90;;;;;;4837507;29;20453;-93
2021/07/13 00:50:36;;;;;;;1.90;1.77;;;19.40;99.90;;;;;;4862516;29;20498;-93
2021/07/13 00:53:06;;;;;;;2.20;1.57;;;19.30;99.90;;;;;;4859598;29;20486;-93
2021/07/13 00:55:35;;;;;;;2.43;1.50;;;19.30;99.90;;;;;;4863791;29;20466;-93
2021/07/13 00:58:04;;;;;;;2.33;1.37;;;19.30;99.90;;;;;;4855264;29;20469;-93
2021/07/13 01:00:31;;;;;;;4.13;1.67;;;19.20;99.90;;;;;;4864516;29;21059;-93
2021/07/13 01:03:03;;;;;;;1.77;1.50;;;19.20;99.90;;;;;;4861977;29;20971;-93
2021/07/13 01:05:38;;;;;;;3.97;1.30;;;19.20;99.90;;;;;;4861888;29;20461;-93
2021/07/13 01:08:12;;;;;;;1.20;1.10;;;19.10;99.90;;;;;;4859018;29;20460;-93
2021/07/13 01:10:56;;;;;;;1.60;1.50;;;19.10;99.90;;;;;;4835802;29;20514;-92
2021/07/13 01:13:43;;;;;;;1.50;1.40;;;19.10;99.90;;;;;;4862885;29;20989;-93
2021/07/13 01:16:27;;;;;;;2.57;1.20;;;19.10;99.90;;;;;;4862630;29;21199;-92
2021/07/13 01:19:35;;;;;;;3.07;1.97;;;19.30;99.90;;;;;;4858998;29;20454;-93
2021/07/13 01:28:49;;;;;;;2.40;2.20;;;19.50;99.90;;;;;;4868002;29;20965;-93
2021/07/13 01:31:55;;;;;;;2.90;2.60;;;19.50;99.90;;;;;;4860780;29;20516;-96
2021/07/13 01:34:40;;;;;;;2.13;1.80;;;19.30;99.90;;;;;;4863021;29;20492;-93
2021/07/13 01:37:15;;;;;;;3.20;1.80;;;19.10;99.90;;;;;;4864433;29;20980;-95
2021/07/13 01:39:53;;;;;;;1.80;1.70;;;19.10;99.90;;;;;;4860530;29;20498;-94
2021/07/13 01:42:32;;;;;;;1.73;1.60;;;19.10;99.90;;;;;;4865773;29;20453;-94
2021/07/13 01:45:01;;;;;;;2.93;1.97;;;19.00;99.90;;;;;;4864259;29;20462;-95
2021/07/13 01:47:30;;;;;;;2.57;1.80;;;18.90;99.90;;;;;;4864014;29;20473;-94
2021/07/13 01:52:55;;;;;;;2.90;2.03;;;18.90;99.90;;;;;;4855256;29;20474;-94
2021/07/13 01:55:39;;;;;;;2.30;2.10;;;18.80;99.90;;;;;;4861953;29;20469;-94
2021/07/13 01:58:15;;;;;;;1.93;1.83;;;18.70;99.90;;;;;;4860812;29;20473;-94
2021/07/13 02:04:07;;;;;;;2.47;1.60;;;18.70;99.90;;;;;;4865971;29;20450;-94
2021/07/13 02:06:53;;;;;;;2.20;1.47;;;18.50;99.90;;;;;;4864804;29;20829;-93
2021/07/13 02:09:26;;;;;;;2.60;2.00;;;18.40;99.90;;;;;;4861478;29;20477;-94
2021/07/13 02:12:35;;;;;;;4.93;1.87;;;18.20;99.90;;;;;;4847761;29;21116;-95
2021/07/13 02:21:34;;;;;;;3.40;2.47;;;18.00;99.90;;;;;;4862689;29;20474;-92
2021/07/13 02:24:12;;;;;;;2.63;2.20;;;17.90;99.90;;;;;;4862008;29;20569;-93
2021/07/13 02:27:02;;;;;;;2.47;2.00;;;17.90;99.90;;;;;;4859081;29;20465;-93
2021/07/13 02:30:10;;;;;;;;;;;;;;;;;;;;;
2021/07/13 02:33:20;;;;;;;;;;;;;;;;;;;;;
2021/07/13 02:36:02;;;;;;;4.20;2.20;;;17.70;99.90;;;;;;4854737;29;20465;-93
2021/07/13 02:38:45;;;;;;;2.50;2.30;;;17.60;99.90;;;;;;4864167;29;20474;-94
2021/07/13 02:45:05;;;;;;;3.10;1.73;;;17.60;99.90;;;;;;4799002;29;20677;-96
2021/07/13 02:47:35;;;;;;;3.73;2.50;;;17.50;99.90;;;;;;4859608;29;20466;-96
2021/07/13 02:50:21;;;;;;;;;;;;;;;;;;;;;
2021/07/13 02:52:54;;;;;;;2.97;2.10;;;17.60;99.90;;;;;;4861983;29;20594;-96
2021/07/13 02:58:34;;;;;;;3.27;1.90;;;17.70;99.90;;;;;;4862770;29;20446;-95
2021/07/13 03:01:30;;;;;;;4.07;1.83;;;17.70;99.90;;;;;;4860791;29;20827;-93
2021/07/13 03:04:15;;;;;;;1.83;1.70;;;17.70;99.90;;;;;;4852113;29;20659;-92
2021/07/13 03:07:26;;;;;;;;;;;;;;;;;;;;;
2021/07/13 03:10:36;;;;;;;;;;;;;;;;;;;;;
2021/07/13 03:13:48;;;;;;;2.27;1.63;;;17.70;99.90;;;;;;4860678;29;20493;-93
2021/07/13 03:16:55;;;;;;;3.50;1.90;;;17.70;99.90;;;;;;4851970;29;20822;-96
2021/07/13 03:24:03;;;;;;;;;;;;;;;;;;;;;
2021/07/13 05:09:57;;;;;;;5.43;4.57;;;18.20;99.90;;;;;;4891081;29;20493;-89
2021/07/13 05:12:24;;;;;;;5.57;3.93;;;18.40;99.90;;;;;;4894260;29;20459;-88
2021/07/13 05:14:50;;;;;;;4.77;4.00;;;18.60;99.90;;;;;;4870961;29;20466;-88
2021/07/13 05:17:16;;;;;;;5.00;3.70;;;18.60;99.90;;;;;;4897217;29;20455;-89
2021/07/13 05:19:44;;;;;;;4.00;3.60;;;18.60;99.90;;;;;;4894150;29;20319;-87
2021/07/13 05:25:11;;;;;;;5.60;3.63;;;18.70;99.90;;;;;;4895739;29;20467;-88
2021/07/13 05:27:39;;;;;;;3.17;2.97;;;18.90;99.90;;;;;;4888546;29;21175;-88
2021/07/13 05:30:07;;;;;;;3.20;2.90;;;18.90;99.90;;;;;;4894768;29;20512;-89
2021/07/13 05:32:34;;;;;;;3.60;3.30;;;18.80;99.90;;;;;;4900415;29;20469;-89
2021/07/13 05:35:00;;;;;;;5.03;2.53;;;18.80;99.90;;;;;;4888584;29;20452;-87
2021/07/13 05:37:50;;;;;;;2.30;2.13;;;18.80;99.90;;;;;;4900055;29;20459;-91
2021/07/13 05:40:17;;;;;;;3.37;2.40;;;18.80;99.90;;;;;;4894636;29;20606;-91
2021/07/13 05:42:44;;;;;;;3.20;2.90;;;18.90;99.90;;;;;;4896403;29;20461;-93
2021/07/13 05:45:13;;;;;;;3.70;2.83;;;18.80;99.90;;;;;;4895143;29;20563;-91
2021/07/13 05:47:41;;;;;;;3.07;2.87;;;18.70;99.90;;;;;;4895362;29;20486;-91
2021/07/13 05:50:09;;;;;;;4.40;2.10;;;18.60;99.90;;;;;;4909837;29;20453;-91
2021/07/13 05:52:36;;;;;;;2.20;2.10;;;18.60;99.90;;;;;;4896124;29;20557;-91
2021/07/13 05:55:03;;;;;;;3.10;2.60;;;18.70;99.90;;;;;;4896716;29;20591;-91
2021/07/13 05:57:32;;;;;;;2.43;2.27;;;18.80;99.90;;;;;;4893414;29;20460;-91
2021/07/13 06:00:06;;;;;;;2.17;1.97;;;18.90;99.90;;;;;;4897928;29;20471;-92
2021/07/13 06:02:32;;;;;;;2.50;2.30;;;18.90;99.90;;;;;;4867774;29;20872;-90
2021/07/13 06:04:59;;;;;;;3.23;2.40;;;18.80;99.90;;;;;;4881890;29;20457;-91
2021/07/13 06:07:31;;;;;;;2.80;1.90;;;18.80;99.90;;;;;;4899002;29;20461;-93
2021/07/13 06:09:57;;;;;;;7.77;2.73;;;18.70;99.90;;;;;;4873244;29;20465;-91
2021/07/13 06:12:24;;;;;;;2.70;2.50;;;18.60;99.90;;;;;;4900787;29;20451;-89
2021/07/13 06:14:53;;;;;;;3.53;2.77;;;18.60;99.90;;;;;;4888382;29;20196;-91
2021/07/13 06:17:27;;;;;;;3.60;3.17;;;18.40;99.90;;;;;;4883730;29;20892;-90
2021/07/13 08:48:23;;;;;;;3.27;2.97;;;18.40;99.90;;;;;;4878298;29;20854;-93
2021/07/13 08:51:03;;;;;;;2.90;2.63;;;18.50;99.90;;;;;;4877546;29;20477;-93
2021/07/13 08:53:29;;;;;;;3.77;3.30;;;18.50;99.90;;;;;;4887001;29;20902;-93
2021/07/13 08:55:57;;;;;;;3.90;3.50;;;18.50;99.90;;;;;;4898861;29;20788;-92
2021/07/13 08:58:24;;;;;;;5.43;3.30;;;18.50;99.90;;;;;;4881304;29;20584;-92
2021/07/13 09:00:51;;;;;;;3.40;3.10;;;18.60;99.90;;;;;;4882308;29;20464;-92
2021/07/13 09:03:21;;;;;;;5.73;5.23;;;18.60;99.90;;;;;;4887150;29;21522;-93
2021/07/13 09:05:53;;;;;;;5.27;4.87;;;18.60;99.90;;;;;;4884219;29;20732;-93
2021/07/13 09:08:24;;;;;;;4.43;4.03;;;18.40;99.90;;;;;;4879281;29;20461;-92
2021/07/13 09:11:05;;;;;;;4.03;3.73;;;18.40;99.90;;;;;;4897210;29;20620;-92
2021/07/13 09:13:59;;;;;;;4.80;3.93;;;18.20;99.90;;;;;;4881533;29;20495;-93
2021/07/13 09:16:38;;;;;;;2.93;2.73;;;18.00;99.90;;;;;;4885723;29;20471;-92
2021/07/13 09:19:19;;;;;;;1.90;1.80;;;17.90;99.90;;;;;;4881710;29;20996;-92
2021/07/13 09:21:45;;;;;;;1.93;1.80;;;17.70;99.90;;;;;;4882329;29;20517;-92
2021/07/13 09:24:22;;;;;;;2.07;1.87;;;17.60;99.90;;;;;;4884074;29;20208;-90
2021/07/13 09:26:55;;;;;;;1.77;1.60;;;17.60;99.90;;;;;;4895131;29;20223;-94
2021/07/13 09:29:41;;;;;;;2.20;1.10;;;17.50;99.90;;;;;;4886825;29;21853;-91
2021/07/13 09:32:25;;;;;;;0.83;0.80;;;17.40;99.90;;;;;;4891781;29;20473;-90
2021/07/13 09:35:03;;;;;;;0.97;0.70;;;17.20;99.90;;;;;;4891012;29;20495;-93
2021/07/13 09:37:35;;;;;;;0.70;0.70;;;17.00;99.90;;;;;;4885061;29;20464;-90
2021/07/13 09:40:08;;;;;;;0.90;0.70;;;16.90;99.90;;;;;;4895935;29;20464;-92
2021/07/13 09:42:41;;;;;;;1.23;0.70;;;16.90;99.90;;;;;;4888559;28;20458;-89
2021/07/13 09:45:24;;;;;;;1.27;0.80;;;16.80;99.90;;;;;;4874626;29;20617;-92
2021/07/13 09:47:55;;;;;;;0.70;0.50;;;16.60;99.90;;;;;;4894304;29;21176;-89
2021/07/13 09:50:45;;;;;;;0.97;0.47;;;16.50;99.90;;;;;;4879106;29;20505;-94
2021/07/13 09:53:22;;;;;;;1.80;0.30;;;16.30;99.90;;;;;;4880348;29;20528;-92
2021/07/13 09:55:49;;;;;;;2.10;0.40;;;16.10;99.90;;;;;;4894330;29;20571;-90
2021/07/13 09:58:20;;;;;;;0.50;0.20;;;16.10;99.90;;;;;;4891291;29;20448;-91
2021/07/13 10:00:48;;;;;;;1.90;0.50;;;16.00;99.90;;;;;;4861376;29;20862;-90
2021/07/13 10:03:16;;;;;;;1.70;0.40;;;15.90;99.90;;;;;;4891617;29;20452;-90
2021/07/13 10:05:47;;;;;;;0.40;0.30;;;15.90;99.90;;;;;;4871467;29;20794;-90
2021/07/13 10:08:14;;;;;;;0.50;0.40;;;15.90;99.90;;;;;;4893848;29;20453;-92
2021/07/13 10:10:44;;;;;;;0.70;0.30;;;15.90;99.90;;;;;;4869719;29;20540;-87
2021/07/13 10:13:15;;;;;;;0.50;0.30;;;15.80;99.90;;;;;;4886938;29;20496;-88
2021/07/13 10:15:44;;;;;;;0.30;0.23;;;15.80;99.90;;;;;;4880352;29;20457;-91
2021/07/13 10:18:41;;;;;;;0.60;0.20;;;15.70;99.90;;;;;;4900983;29;20864;-95
2021/07/13 10:21:08;;;;;;;1.07;0.30;;;15.70;99.90;;;;;;4819667;29;21907;-94
2021/07/13 10:23:34;;;;;;;1.23;0.30;;;15.70;99.90;;;;;;4880738;29;20456;-91
2021/07/13 10:26:01;;;;;;;0.30;0.20;;;15.80;99.90;;;;;;4891321;29;21063;-92
2021/07/13 10:28:39;;;;;;;1.23;0.20;;;15.80;99.90;;;;;;4903532;29;20456;-96
2021/07/13 10:31:41;;;;;;;0.63;0.30;;;15.60;99.90;;;;;;4903809;29;20484;-93
2021/07/13 10:34:07;;;;;;;1.27;0.43;;;15.50;99.90;;;;;;4887874;29;21291;-89
2021/07/13 10:36:41;;;;;;;0.93;0.47;;;15.50;99.90;;;;;;4879208;29;20457;-93
2021/07/13 10:39:28;;;;;;;1.67;0.30;;;15.50;99.90;;;;;;4882310;29;20477;-92
2021/07/13 10:42:01;;;;;;;1.17;0.30;;;15.50;99.90;;;;;;4895851;29;20500;-93
2021/07/13 10:44:58;;;;;;;4.53;0.70;;;15.50;99.90;;;;;;4893236;29;20457;-94
2021/07/13 10:47:30;;;;;;;0.87;0.37;;;15.50;99.90;;;;;;4890403;29;20469;-96
2021/07/13 10:50:32;;;;;;;0.70;0.30;;;15.50;99.90;;;;;;4894916;29;20468;-93
2021/07/13 10:53:32;;;;;;;1.93;0.60;;;15.60;99.90;;;;;;4894706;29;20828;-91
2021/07/13 10:56:17;;;;;;;0.80;0.60;;;15.80;99.90;;;;;;4880570;29;20492;-93
2021/07/13 10:58:46;;;;;;;1.17;0.50;;;16.00;99.90;;;;;;4881638;29;20500;-91
2021/07/13 11:01:20;;;;;;;0.50;0.40;;;16.30;99.90;;;;;;4888335;29;20465;-92
2021/07/13 11:03:46;;;;;;;2.50;0.50;;;16.70;99.90;;;;;;4874476;29;20449;-90
2021/07/13 11:06:21;;;;;;;0.77;0.30;;;16.90;99.90;;;;;;4894328;29;20875;-95
2021/07/13 11:08:48;;;;;;;1.20;0.37;;;16.90;99.90;;;;;;4888444;29;20212;-90
2021/07/13 11:11:17;;;;;;;0.40;0.40;;;16.70;99.90;;;;;;4872908;29;20882;-92
2021/07/13 11:13:54;;;;;;;0.87;0.33;;;16.50;99.90;;;;;;4886045;29;20756;-90
2021/07/13 11:16:26;;;;;;;1.10;0.40;;;16.40;99.90;;;;;;4891929;29;20453;-91
2021/07/13 11:18:59;;;;;;;1.70;0.50;;;16.20;99.90;;;;;;4893821;29;20551;-92
2021/07/13 11:24:35;;;;;;;0.43;0.43;;;16.40;99.90;;;;;;4874791;29;20479;-89
2021/07/13 11:27:02;;;;;;;1.60;0.40;;;16.40;99.90;;;;;;4875853;29;20492;-91
2021/07/13 11:29:30;;;;;;;0.80;0.33;;;16.40;99.90;;;;;;4893398;29;20799;-89
2021/07/13 11:32:03;;;;;;;0.40;0.33;;;16.40;99.90;;;;;;4891893;29;20752;-94
2021/07/13 11:34:44;;;;;;;0.40;0.33;;;16.30;99.90;;;;;;4887467;29;20512;-92
2021/07/13 11:37:29;;;;;;;0.50;0.47;;;16.30;99.90;;;;;;4882862;29;20963;-93
2021/07/13 11:40:09;;;;;;;1.27;0.37;;;16.30;99.90;;;;;;4902193;29;20465;-95
2021/07/13 11:42:39;;;;;;;0.60;0.30;;;16.30;99.90;;;;;;4908105;29;20461;-92
2021/07/13 11:45:09;;;;;;;0.83;0.40;;;16.30;99.90;;;;;;4904825;29;21361;-94
2021/07/13 11:47:40;;;;;;;0.50;0.30;;;16.30;99.90;;;;;;4885154;29;20548;-94
2021/07/13 11:50:18;;;;;;;0.80;0.30;;;16.30;99.90;;;;;;4911172;29;20525;-94
2021/07/13 11:52:52;;;;;;;1.73;0.30;;;16.30;99.90;;;;;;4903211;29;20488;-93
2021/07/13 11:55:29;;;;;;;5.20;0.70;;;16.30;99.90;;;;;;4882064;29;20469;-94
2021/07/13 11:57:58;;;;;;;0.50;0.40;;;16.30;99.90;;;;;;4884659;29;20983;-92
2021/07/13 12:00:33;;;;;;;1.33;0.50;;;16.50;99.90;;;;;;4889725;29;20457;-94
2021/07/13 12:02:59;;;;;;;0.60;0.40;;;16.50;99.90;;;;;;4880743;29;20453;-90
2021/07/13 12:05:36;;;;;;;0.47;0.47;;;16.60;99.90;;;;;;4895949;29;20497;-95
2021/07/13 12:08:02;;;;;;;2.20;0.30;;;16.70;99.90;;;;;;4898331;29;20457;-92
2021/07/13 12:10:38;;;;;;;0.47;0.47;;;16.90;99.90;;;;;;4882874;29;20463;-92
2021/07/13 12:13:29;;;;;;;;;;;;;;;;;;;;;
2021/07/13 12:16:33;;;;;;;0.80;0.50;;;16.80;99.90;;;;;;4873076;29;21834;-94
2021/07/13 12:19:10;;;;;;;0.60;0.40;;;16.80;99.90;;;;;;4877663;29;20469;-91
2021/07/13 12:21:44;;;;;;;1.53;0.50;;;16.80;99.90;;;;;;4884672;29;20458;-93
2021/07/13 12:24:17;;;;;;;1.43;0.70;;;16.90;99.90;;;;;;4886083;29;20461;-93
2021/07/13 12:27:34;;;;;;;0.97;0.60;;;17.00;99.90;;;;;;4899903;29;21087;-96
2021/07/13 12:30:51;;;;;;;;;;;;;;;;;;;;;
2021/07/13 19:04:47;;;;;;;1.50;1.40;;;17.60;99.90;;;;;;4872822;29;20497;-87
2021/07/13 19:07:21;;;;;;;1.47;1.37;;;17.60;99.90;;;;;;4847486;29;20545;-87
2021/07/13 19:09:47;;;;;;;1.67;1.50;;;17.40;99.90;;;;;;4864256;29;20449;-86
2021/07/13 19:12:13;;;;;;;1.60;1.50;;;17.40;99.90;;;;;;4860672;29;20460;-87
2021/07/13 19:14:38;;;;;;;1.30;1.20;;;17.40;99.90;;;;;;4876696;29;20277;-87
2021/07/13 19:17:04;;;;;;;1.33;1.23;;;17.30;99.90;;;;;;4873216;29;21027;-87
2021/07/13 19:19:30;;;;;;;1.00;1.00;;;17.30;99.90;;;;;;4875797;29;20224;-87
2021/07/13 19:21:55;;;;;;;5.60;1.50;;;17.20;99.90;;;;;;4862765;29;20271;-87
2021/07/13 19:24:21;;;;;;;1.50;1.40;;;17.20;99.90;;;;;;4864170;29;20189;-87
2021/07/13 19:26:53;;;;;;;1.70;1.60;;;17.20;99.90;;;;;;4884936;29;21116;-87
2021/07/13 19:29:19;;;;;;;3.30;2.50;;;17.10;99.90;;;;;;4876565;29;20538;-87
2021/07/13 19:31:51;;;;;;;1.93;1.83;;;17.00;99.90;;;;;;4860583;29;20484;-87
2021/07/13 19:39:45;;;;;;;2.83;1.60;;;16.90;99.90;;;;;;4878485;29;21201;-87
2021/07/13 19:42:18;;;;;;;1.13;1.10;;;16.70;99.90;;;;;;4877557;29;20530;-87
2021/07/13 19:44:43;;;;;;;1.70;1.60;;;16.70;99.90;;;;;;4861474;29;20543;-86
2021/07/13 19:47:09;;;;;;;3.37;1.47;;;16.60;99.90;;;;;;4859799;29;20795;-87
2021/07/13 19:49:35;;;;;;;2.17;1.63;;;16.50;99.90;;;;;;4875594;29;20201;-86
2021/07/13 19:52:01;;;;;;;2.10;1.50;;;16.40;99.90;;;;;;4859320;29;20194;-87
2021/07/13 19:54:28;;;;;;;2.50;2.30;;;16.30;99.90;;;;;;4877137;29;20486;-88
2021/07/13 19:56:54;;;;;;;4.00;2.70;;;16.30;99.90;;;;;;4864504;29;20582;-88
2021/07/13 19:59:24;;;;;;;5.27;2.00;;;16.40;99.90;;;;;;4861856;29;20806;-87
2021/07/13 20:01:51;;;;;;;2.23;2.03;;;16.30;99.90;;;;;;4875104;29;20445;-86
2021/07/13 20:04:17;;;;;;;2.37;2.17;;;16.20;99.90;;;;;;4880455;29;20465;-85
2021/07/13 20:06:44;;;;;;;2.63;2.30;;;16.20;99.90;;;;;;4881638;29;20457;-95
2021/07/13 20:09:10;;;;;;;2.50;2.30;;;16.10;99.90;;;;;;4865268;29;20445;-89
2021/07/13 20:11:37;;;;;;;1.60;1.50;;;16.10;99.90;;;;;;4870572;29;20501;-88
2021/07/13 20:14:03;;;;;;;3.40;1.47;;;16.10;99.90;;;;;;4875918;29;20640;-89
2021/07/13 20:16:31;;;;;;;1.60;1.50;;;16.20;99.90;;;;;;4881529;29;21301;-87
2021/07/13 20:18:58;;;;;;;1.77;1.60;;;16.20;99.90;;;;;;4863579;29;20468;-88
2021/07/13 20:21:24;;;;;;;1.90;1.30;;;16.10;99.90;;;;;;4878498;29;20473;-88
2021/07/13 20:23:50;;;;;;;2.00;1.90;;;16.10;99.90;;;;;;4863370;29;20456;-87
2021/07/13 20:26:16;;;;;;;2.70;1.83;;;16.00;99.90;;;;;;4879011;29;20205;-88
2021/07/13 20:28:43;;;;;;;1.73;1.40;;;16.00;99.90;;;;;;4864939;29;20205;-88
2021/07/13 20:31:09;;;;;;;2.03;1.83;;;16.00;99.90;;;;;;4863572;29;20552;-88
2021/07/13 20:33:35;;;;;;;1.97;1.80;;;16.10;99.90;;;;;;4878244;29;20979;-93
2021/07/13 20:36:03;;;;;;;1.80;1.70;;;16.00;99.90;;;;;;4878703;29;20299;-89
2021/07/13 20:38:29;;;;;;;4.33;2.00;;;15.90;99.90;;;;;;4862401;29;20980;-88
2021/07/13 20:40:55;;;;;;;1.80;1.70;;;15.90;99.90;;;;;;4875111;29;20442;-88
2021/07/13 20:43:20;;;;;;;2.80;2.60;;;15.80;99.90;;;;;;4865899;29;20544;-89
2021/07/13 20:45:47;;;;;;;2.60;2.03;;;15.80;99.90;;;;;;4862253;29;20461;-90
2021/07/13 20:48:13;;;;;;;4.13;1.90;;;15.80;99.90;;;;;;4865458;29;20224;-91
2021/07/13 20:50:39;;;;;;;2.97;2.10;;;15.80;99.90;;;;;;4863692;29;21022;-88
2021/07/13 20:53:05;;;;;;;3.33;2.00;;;15.70;99.90;;;;;;4875232;29;20471;-87
2021/07/13 20:55:32;;;;;;;2.40;2.10;;;15.80;99.90;;;;;;4870964;29;20493;-88
2021/07/13 20:57:57;;;;;;;1.70;1.60;;;15.80;99.90;;;;;;4858023;29;20487;-90
2021/07/13 21:00:24;;;;;;;2.07;1.70;;;15.80;99.90;;;;;;4860996;29;20454;-88
2021/07/13 21:02:49;;;;;;;1.93;1.63;;;15.80;99.90;;;;;;4875471;29;20185;-89
2021/07/13 21:05:15;;;;;;;2.00;1.90;;;15.70;99.90;;;;;;4852873;29;20473;-90
2021/07/13 21:07:41;;;;;;;2.30;1.67;;;15.70;99.90;;;;;;4876084;29;20292;-89
2021/07/13 21:10:08;;;;;;;2.90;1.90;;;15.60;99.90;;;;;;4862998;29;20884;-89
2021/07/13 21:12:33;;;;;;;2.40;1.97;;;15.60;99.90;;;;;;4878528;29;20276;-89
2021/07/13 21:14:59;;;;;;;2.30;1.87;;;15.60;99.90;;;;;;4872297;29;20484;-89
2021/07/13 21:17:25;;;;;;;1.53;1.43;;;15.50;99.90;;;;;;4860451;29;20224;-90
2021/07/13 21:19:54;;;;;;;4.17;1.70;;;15.50;99.90;;;;;;4857422;29;20548;-89
2021/07/13 21:22:19;;;;;;;1.70;1.60;;;15.40;99.90;;;;;;4860494;29;20193;-89
2021/07/13 21:24:45;;;;;;;3.03;2.03;;;15.40;99.90;;;;;;4875611;29;20449;-90
2021/07/13 21:27:11;;;;;;;4.10;2.13;;;15.50;99.90;;;;;;4860867;29;20216;-88
2021/07/13 21:29:41;;;;;;;2.73;2.50;;;15.50;99.90;;;;;;4882333;29;20188;-88
2021/07/13 21:32:07;;;;;;;2.07;1.97;;;15.40;99.90;;;;;;4861370;29;20456;-89
2021/07/13 21:34:33;;;;;;;3.47;2.00;;;15.40;99.90;;;;;;4845505;29;20228;-89
2021/07/13 21:36:59;;;;;;;2.33;2.07;;;15.40;99.90;;;;;;4875195;29;20904;-89
2021/07/13 21:39:24;;;;;;;2.43;2.23;;;15.40;99.90;;;;;;4863175;29;20252;-89
2021/07/13 21:41:50;;;;;;;1.70;1.60;;;15.30;99.90;;;;;;4873881;29;20661;-88
2021/07/13 21:44:17;;;;;;;2.50;2.00;;;15.30;99.90;;;;;;4858145;29;20235;-88
2021/07/13 21:46:42;;;;;;;2.40;2.03;;;15.40;99.90;;;;;;4847218;29;20465;-89
2021/07/13 21:49:09;;;;;;;2.03;1.93;;;15.40;99.90;;;;;;4858617;29;20469;-89
2021/07/13 21:51:37;;;;;;;2.17;2.00;;;15.30;99.90;;;;;;4859868;29;20189;-89
2021/07/13 21:54:04;;;;;;;2.27;2.07;;;15.20;99.90;;;;;;4873509;29;20848;-88
2021/07/13 21:56:29;;;;;;;4.50;1.90;;;15.00;99.90;;;;;;4874618;29;20486;-89
2021/07/13 21:58:55;;;;;;;1.87;1.77;;;15.00;99.90;;;;;;4876137;29;20921;-88
2021/07/13 22:01:27;;;;;;;2.90;2.43;;;14.90;99.90;;;;;;4873126;29;20200;-88
2021/07/13 22:03:52;;;;;;;2.03;1.93;;;14.80;99.90;;;;;;4873783;29;20196;-88
2021/07/13 22:06:18;;;;;;;2.40;1.83;;;14.60;99.90;;;;;;4859636;29;20445;-87
2021/07/13 22:08:44;;;;;;;5.17;1.80;;;14.50;99.90;;;;;;4860328;29;20189;-88
2021/07/13 22:11:09;;;;;;;4.97;2.43;;;14.40;99.90;;;;;;4872908;29;20197;-89
2021/07/13 22:13:35;;;;;;;2.00;1.90;;;14.30;99.90;;;;;;4859493;29;20192;-88
2021/07/13 22:16:01;;;;;;;2.33;2.10;;;14.20;99.90;;;;;;4874161;29;20638;-89
2021/07/13 22:18:28;;;;;;;2.00;1.90;;;14.10;99.90;;;;;;4876948;29;20445;-88
2021/07/13 22:20:54;;;;;;;2.07;1.80;;;14.00;99.90;;;;;;4861167;29;20456;-88
2021/07/13 22:23:19;;;;;;;3.20;2.17;;;14.00;99.90;;;;;;4875989;29;20279;-89
2021/07/13 22:25:45;;;;;;;2.20;1.97;;;13.90;99.90;;;;;;4872334;29;20445;-89
2021/07/13 22:28:11;;;;;;;2.10;2.00;;;14.00;99.90;;;;;;4860445;29;20189;-89
2021/07/13 22:30:37;;;;;;;2.20;2.10;;;14.00;99.90;;;;;;4874933;29;20591;-89
2021/07/13 22:33:03;;;;;;;3.57;2.10;;;14.10;99.90;;;;;;4856079;29;20209;-89
2021/07/13 22:35:29;;;;;;;2.73;2.30;;;14.00;99.90;;;;;;4876487;29;20302;-89
2021/07/13 22:37:56;;;;;;;2.40;2.20;;;13.90;99.90;;;;;;4859412;29;20192;-89
2021/07/13 22:40:22;;;;;;;2.40;2.20;;;13.90;99.90;;;;;;4859115;29;20551;-89
2021/07/13 22:42:49;;;;;;;2.90;2.50;;;13.90;99.90;;;;;;4875803;29;20458;-89
2021/07/13 22:45:15;;;;;;;2.93;1.80;;;13.90;99.90;;;;;;4877327;29;20485;-89
2021/07/13 22:47:49;;;;;;;2.27;2.07;;;14.00;99.90;;;;;;4877463;29;20453;-88
2021/07/13 22:50:17;;;;;;;2.80;2.40;;;14.10;99.90;;;;;;4873053;29;20840;-88
2021/07/13 22:52:44;;;;;;;5.90;2.60;;;14.10;99.90;;;;;;4866667;29;20453;-89
2021/07/13 22:55:11;;;;;;;4.83;2.53;;;14.10;99.90;;;;;;4858475;29;20485;-88
2021/07/13 22:57:38;;;;;;;2.60;2.40;;;14.20;99.90;;;;;;4858174;29;20511;-89
2021/07/13 23:00:08;;;;;;;2.83;2.63;;;14.30;99.90;;;;;;4859331;29;20465;-89
2021/07/13 23:02:46;;;;;;;3.17;2.87;;;14.40;99.90;;;;;;4877673;29;20462;-88
2021/07/13 23:05:18;;;;;;;4.47;4.00;;;14.50;99.90;;;;;;4871357;29;21069;-90
2021/07/13 23:07:44;;;;;;;7.13;4.00;;;14.60;99.90;;;;;;4860000;29;20453;-88
2021/07/13 23:10:13;;;;;;;3.33;3.07;;;14.60;99.90;;;;;;4856381;29;22036;-89
2021/07/13 23:12:40;;;;;;;6.47;3.00;;;14.60;99.90;;;;;;4874369;29;20485;-89
2021/07/13 23:15:10;;;;;;;3.00;2.70;;;14.70;99.90;;;;;;4860397;29;21747;-88
2021/07/13 23:17:36;;;;;;;3.13;2.93;;;14.50;99.90;;;;;;4853891;29;20476;-89
2021/07/13 23:20:14;;;;;;;4.00;2.87;;;14.40;99.90;;;;;;4855923;29;20457;-88
2021/07/13 23:22:46;;;;;;;4.03;2.70;;;14.40;99.90;;;;;;4872432;29;20814;-88
2021/07/13 23:25:12;;;;;;;3.03;2.70;;;14.40;99.90;;;;;;4871887;29;21137;-88
2021/07/13 23:27:38;;;;;;;7.27;3.13;;;14.40;99.90;;;;;;4873279;29;20547;-87
2021/07/13 23:30:05;;;;;;;3.93;2.77;;;14.40;99.90;;;;;;4864450;29;20449;-87
2021/07/13 23:32:31;;;;;;;5.03;3.47;;;14.30;99.90;;;;;;4865584;29;20189;-86
2021/07/13 23:34:57;;;;;;;4.40;3.60;;;14.30;99.90;;;;;;4879645;29;20488;-88
2021/07/13 23:37:22;;;;;;;4.20;3.27;;;14.30;99.90;;;;;;4861740;29;20976;-88
2021/07/13 23:39:52;;;;;;;4.33;3.30;;;14.30;99.90;;;;;;4863878;29;20731;-87
2021/07/13 23:42:17;;;;;;;5.63;2.80;;;14.30;99.90;;;;;;4862277;29;20339;-87
2021/07/13 23:44:43;;;;;;;3.27;2.93;;;14.30;99.90;;;;;;4865485;29;20489;-87
2021/07/13 23:47:12;;;;;;;3.17;2.90;;;14.30;99.90;;;;;;4862864;29;20229;-87
2021/07/13 23:49:37;;;;;;;3.33;3.13;;;14.40;99.90;;;;;;4884317;29;20200;-88
2021/07/13 23:52:07;;;;;;;4.10;2.77;;;14.40;99.90;;;;;;4856955;29;20476;-87
2021/07/13 23:54:33;;;;;;;4.13;3.00;;;14.40;99.90;;;;;;4875947;29;21006;-88
2021/07/13 23:56:59;;;;;;;4.80;2.70;;;14.30;99.90;;;;;;4877544;29;20476;-88
2021/07/13 23:59:24;;;;;;;4.40;3.10;;;14.30;99.90;;;;;;4864384;29;20668;-88
